<?xml version="1.0" encoding="UTF-8" standalone="no" ?>
<gpx xmlns="http://www.topografix.com/GPX/1/1" xmlns:xsi="http://www.w3.org/2001/XMLSchema-instance" xsi:schemaLocation="http://www.topografix.com/GPX/1/1 http://www.topografix.com/GPX/1/1/gpx.xsd" version="1.1" creator="VisuGPX - https://www.visugpx.com">
  <metadata>
    <name>trail de l'hers 2023</name>
  </metadata>
  <trk>
    <name><![CDATA[Trail 2 l'Hers - 15k-16415004]]></name>
    <extensions>
      <line xmlns="http://www.topografix.com/GPX/gpx_style/0/2">
        <color>2b00ff</color>
        <opacity>1</opacity>
        <width>4</width>
          <extensions>
            <sens>1</sens>
          </extensions>
      </line>
    </extensions>
    <trkseg>
      <trkpt lat="42.95601" lon="1.91072">
        <ele>430</ele>
        <time>2023-03-24T06:12:44Z</time>
      </trkpt>
      <trkpt lat="42.9564" lon="1.91114">
        <ele>430</ele>
        <time>2023-03-24T06:13:09Z</time>
      </trkpt>
      <trkpt lat="42.95668" lon="1.91087">
        <ele>430</ele>
        <time>2023-03-24T06:13:26Z</time>
      </trkpt>
      <trkpt lat="42.95648" lon="1.91049">
        <ele>431</ele>
        <time>2023-03-24T06:13:43Z</time>
      </trkpt>
      <trkpt lat="42.9566" lon="1.91026">
        <ele>433</ele>
        <time>2023-03-24T06:13:53Z</time>
      </trkpt>
      <trkpt lat="42.95649" lon="1.91014">
        <ele>433</ele>
        <time>2023-03-24T06:14:01Z</time>
      </trkpt>
      <trkpt lat="42.95657" lon="1.91008">
        <ele>433</ele>
        <time>2023-03-24T06:14:05Z</time>
      </trkpt>
      <trkpt lat="42.95723" lon="1.90998">
        <ele>437</ele>
        <time>2023-03-24T06:14:38Z</time>
      </trkpt>
      <trkpt lat="42.95735" lon="1.90995">
        <ele>438</ele>
        <time>2023-03-24T06:14:44Z</time>
      </trkpt>
      <trkpt lat="42.95748" lon="1.90989">
        <ele>439</ele>
        <time>2023-03-24T06:14:51Z</time>
      </trkpt>
      <trkpt lat="42.95751" lon="1.9099">
        <ele>439</ele>
        <time>2023-03-24T06:14:53Z</time>
      </trkpt>
      <trkpt lat="42.95749" lon="1.90972">
        <ele>440</ele>
        <time>2023-03-24T06:15:00Z</time>
      </trkpt>
      <trkpt lat="42.95733" lon="1.90934">
        <ele>442</ele>
        <time>2023-03-24T06:15:16Z</time>
      </trkpt>
      <trkpt lat="42.95714" lon="1.90899">
        <ele>443</ele>
        <time>2023-03-24T06:15:32Z</time>
      </trkpt>
      <trkpt lat="42.95681" lon="1.90858">
        <ele>443</ele>
        <time>2023-03-24T06:15:54Z</time>
      </trkpt>
      <trkpt lat="42.95665" lon="1.90834">
        <ele>444</ele>
        <time>2023-03-24T06:16:06Z</time>
      </trkpt>
      <trkpt lat="42.95668" lon="1.9083">
        <ele>444</ele>
        <time>2023-03-24T06:16:08Z</time>
      </trkpt>
      <trkpt lat="42.95674" lon="1.90832">
        <ele>444</ele>
        <time>2023-03-24T06:16:11Z</time>
      </trkpt>
      <trkpt lat="42.95684" lon="1.90826">
        <ele>445</ele>
        <time>2023-03-24T06:16:16Z</time>
      </trkpt>
      <trkpt lat="42.95688" lon="1.90818">
        <ele>445</ele>
        <time>2023-03-24T06:16:20Z</time>
      </trkpt>
      <trkpt lat="42.95714" lon="1.90714">
        <ele>446</ele>
        <time>2023-03-24T06:17:00Z</time>
      </trkpt>
      <trkpt lat="42.95719" lon="1.907">
        <ele>446</ele>
        <time>2023-03-24T06:17:06Z</time>
      </trkpt>
      <trkpt lat="42.95731" lon="1.90685">
        <ele>446</ele>
        <time>2023-03-24T06:17:14Z</time>
      </trkpt>
      <trkpt lat="42.95794" lon="1.90643">
        <ele>449</ele>
        <time>2023-03-24T06:17:49Z</time>
      </trkpt>
      <trkpt lat="42.95805" lon="1.90638">
        <ele>450</ele>
        <time>2023-03-24T06:17:55Z</time>
      </trkpt>
      <trkpt lat="42.95815" lon="1.90636">
        <ele>451</ele>
        <time>2023-03-24T06:18:00Z</time>
      </trkpt>
      <trkpt lat="42.95825" lon="1.90638">
        <ele>452</ele>
        <time>2023-03-24T06:18:05Z</time>
      </trkpt>
      <trkpt lat="42.95876" lon="1.90668">
        <ele>455</ele>
        <time>2023-03-24T06:18:33Z</time>
      </trkpt>
      <trkpt lat="42.95907" lon="1.90674">
        <ele>457</ele>
        <time>2023-03-24T06:18:48Z</time>
      </trkpt>
      <trkpt lat="42.95914" lon="1.90673">
        <ele>458</ele>
        <time>2023-03-24T06:18:52Z</time>
      </trkpt>
      <trkpt lat="42.95955" lon="1.90639">
        <ele>463</ele>
        <time>2023-03-24T06:19:16Z</time>
      </trkpt>
      <trkpt lat="42.95989" lon="1.90581">
        <ele>468</ele>
        <time>2023-03-24T06:19:43Z</time>
      </trkpt>
      <trkpt lat="42.95999" lon="1.90545">
        <ele>468</ele>
        <time>2023-03-24T06:19:57Z</time>
      </trkpt>
      <trkpt lat="42.96008" lon="1.90526">
        <ele>470</ele>
        <time>2023-03-24T06:20:06Z</time>
      </trkpt>
      <trkpt lat="42.96111" lon="1.90359">
        <ele>484</ele>
        <time>2023-03-24T06:21:26Z</time>
      </trkpt>
      <trkpt lat="42.9619" lon="1.90278">
        <ele>500</ele>
        <time>2023-03-24T06:22:15Z</time>
      </trkpt>
      <trkpt lat="42.96226" lon="1.90231">
        <ele>505</ele>
        <time>2023-03-24T06:22:40Z</time>
      </trkpt>
      <trkpt lat="42.96232" lon="1.90229">
        <ele>507</ele>
        <time>2023-03-24T06:22:43Z</time>
      </trkpt>
      <trkpt lat="42.96238" lon="1.9023">
        <ele>509</ele>
        <time>2023-03-24T06:22:46Z</time>
      </trkpt>
      <trkpt lat="42.9626" lon="1.90239">
        <ele>513</ele>
        <time>2023-03-24T06:22:58Z</time>
      </trkpt>
      <trkpt lat="42.96265" lon="1.90237">
        <ele>513</ele>
        <time>2023-03-24T06:23:00Z</time>
      </trkpt>
      <trkpt lat="42.96268" lon="1.9024">
        <ele>514</ele>
        <time>2023-03-24T06:23:02Z</time>
      </trkpt>
      <trkpt lat="42.96279" lon="1.9024">
        <ele>514</ele>
        <time>2023-03-24T06:23:08Z</time>
      </trkpt>
      <trkpt lat="42.96279" lon="1.90264">
        <ele>516</ele>
        <time>2023-03-24T06:23:16Z</time>
      </trkpt>
      <trkpt lat="42.96258" lon="1.90317">
        <ele>521</ele>
        <time>2023-03-24T06:23:38Z</time>
      </trkpt>
      <trkpt lat="42.96241" lon="1.90348">
        <ele>521</ele>
        <time>2023-03-24T06:23:53Z</time>
      </trkpt>
      <trkpt lat="42.96239" lon="1.90368">
        <ele>522</ele>
        <time>2023-03-24T06:24:00Z</time>
      </trkpt>
      <trkpt lat="42.96231" lon="1.90392">
        <ele>522</ele>
        <time>2023-03-24T06:24:10Z</time>
      </trkpt>
      <trkpt lat="42.96229" lon="1.90408">
        <ele>523</ele>
        <time>2023-03-24T06:24:16Z</time>
      </trkpt>
      <trkpt lat="42.96217" lon="1.90415">
        <ele>521</ele>
        <time>2023-03-24T06:24:22Z</time>
      </trkpt>
      <trkpt lat="42.96206" lon="1.90431">
        <ele>519</ele>
        <time>2023-03-24T06:24:30Z</time>
      </trkpt>
      <trkpt lat="42.96194" lon="1.90469">
        <ele>519</ele>
        <time>2023-03-24T06:24:45Z</time>
      </trkpt>
      <trkpt lat="42.96192" lon="1.90484">
        <ele>520</ele>
        <time>2023-03-24T06:24:51Z</time>
      </trkpt>
      <trkpt lat="42.96195" lon="1.90515">
        <ele>521</ele>
        <time>2023-03-24T06:25:02Z</time>
      </trkpt>
      <trkpt lat="42.96202" lon="1.90535">
        <ele>521</ele>
        <time>2023-03-24T06:25:10Z</time>
      </trkpt>
      <trkpt lat="42.96204" lon="1.90564">
        <ele>521</ele>
        <time>2023-03-24T06:25:21Z</time>
      </trkpt>
      <trkpt lat="42.96207" lon="1.90579">
        <ele>521</ele>
        <time>2023-03-24T06:25:27Z</time>
      </trkpt>
      <trkpt lat="42.96204" lon="1.90593">
        <ele>520</ele>
        <time>2023-03-24T06:25:32Z</time>
      </trkpt>
      <trkpt lat="42.96204" lon="1.90615">
        <ele>519</ele>
        <time>2023-03-24T06:25:40Z</time>
      </trkpt>
      <trkpt lat="42.96211" lon="1.90679">
        <ele>519</ele>
        <time>2023-03-24T06:26:04Z</time>
      </trkpt>
      <trkpt lat="42.96204" lon="1.90751">
        <ele>519</ele>
        <time>2023-03-24T06:26:30Z</time>
      </trkpt>
      <trkpt lat="42.96193" lon="1.90793">
        <ele>520</ele>
        <time>2023-03-24T06:26:47Z</time>
      </trkpt>
      <trkpt lat="42.9619" lon="1.90823">
        <ele>521</ele>
        <time>2023-03-24T06:26:58Z</time>
      </trkpt>
      <trkpt lat="42.96173" lon="1.90915">
        <ele>523</ele>
        <time>2023-03-24T06:27:33Z</time>
      </trkpt>
      <trkpt lat="42.96174" lon="1.90996">
        <ele>525</ele>
        <time>2023-03-24T06:28:02Z</time>
      </trkpt>
      <trkpt lat="42.96177" lon="1.91009">
        <ele>525</ele>
        <time>2023-03-24T06:28:07Z</time>
      </trkpt>
      <trkpt lat="42.96177" lon="1.91055">
        <ele>525</ele>
        <time>2023-03-24T06:28:24Z</time>
      </trkpt>
      <trkpt lat="42.96176" lon="1.91068">
        <ele>525</ele>
        <time>2023-03-24T06:28:29Z</time>
      </trkpt>
      <trkpt lat="42.9617" lon="1.91079">
        <ele>525</ele>
        <time>2023-03-24T06:28:34Z</time>
      </trkpt>
      <trkpt lat="42.96169" lon="1.91091">
        <ele>525</ele>
        <time>2023-03-24T06:28:38Z</time>
      </trkpt>
      <trkpt lat="42.96173" lon="1.9115">
        <ele>524</ele>
        <time>2023-03-24T06:29:00Z</time>
      </trkpt>
      <trkpt lat="42.96168" lon="1.91175">
        <ele>524</ele>
        <time>2023-03-24T06:29:10Z</time>
      </trkpt>
      <trkpt lat="42.96168" lon="1.912">
        <ele>523</ele>
        <time>2023-03-24T06:29:19Z</time>
      </trkpt>
      <trkpt lat="42.96174" lon="1.91242">
        <ele>522</ele>
        <time>2023-03-24T06:29:34Z</time>
      </trkpt>
      <trkpt lat="42.96169" lon="1.91273">
        <ele>523</ele>
        <time>2023-03-24T06:29:46Z</time>
      </trkpt>
      <trkpt lat="42.96158" lon="1.91297">
        <ele>521</ele>
        <time>2023-03-24T06:29:56Z</time>
      </trkpt>
      <trkpt lat="42.96149" lon="1.91333">
        <ele>519</ele>
        <time>2023-03-24T06:30:10Z</time>
      </trkpt>
      <trkpt lat="42.9614" lon="1.91355">
        <ele>517</ele>
        <time>2023-03-24T06:30:20Z</time>
      </trkpt>
      <trkpt lat="42.9613" lon="1.91397">
        <ele>515</ele>
        <time>2023-03-24T06:30:36Z</time>
      </trkpt>
      <trkpt lat="42.96128" lon="1.9143">
        <ele>515</ele>
        <time>2023-03-24T06:30:48Z</time>
      </trkpt>
      <trkpt lat="42.96121" lon="1.91467">
        <ele>513</ele>
        <time>2023-03-24T06:31:02Z</time>
      </trkpt>
      <trkpt lat="42.96111" lon="1.91495">
        <ele>511</ele>
        <time>2023-03-24T06:31:13Z</time>
      </trkpt>
      <trkpt lat="42.96109" lon="1.91533">
        <ele>512</ele>
        <time>2023-03-24T06:31:27Z</time>
      </trkpt>
      <trkpt lat="42.96104" lon="1.91549">
        <ele>512</ele>
        <time>2023-03-24T06:31:34Z</time>
      </trkpt>
      <trkpt lat="42.96105" lon="1.91564">
        <ele>513</ele>
        <time>2023-03-24T06:31:39Z</time>
      </trkpt>
      <trkpt lat="42.961" lon="1.91594">
        <ele>514</ele>
        <time>2023-03-24T06:31:50Z</time>
      </trkpt>
      <trkpt lat="42.96094" lon="1.91614">
        <ele>514</ele>
        <time>2023-03-24T06:31:58Z</time>
      </trkpt>
      <trkpt lat="42.96091" lon="1.91643">
        <ele>516</ele>
        <time>2023-03-24T06:32:09Z</time>
      </trkpt>
      <trkpt lat="42.9608" lon="1.91689">
        <ele>517</ele>
        <time>2023-03-24T06:32:27Z</time>
      </trkpt>
      <trkpt lat="42.96081" lon="1.91708">
        <ele>519</ele>
        <time>2023-03-24T06:32:34Z</time>
      </trkpt>
      <trkpt lat="42.96065" lon="1.91786">
        <ele>517</ele>
        <time>2023-03-24T06:33:03Z</time>
      </trkpt>
      <trkpt lat="42.96057" lon="1.91835">
        <ele>516</ele>
        <time>2023-03-24T06:33:22Z</time>
      </trkpt>
      <trkpt lat="42.96054" lon="1.91899">
        <ele>517</ele>
        <time>2023-03-24T06:33:45Z</time>
      </trkpt>
      <trkpt lat="42.96054" lon="1.91934">
        <ele>517</ele>
        <time>2023-03-24T06:33:58Z</time>
      </trkpt>
      <trkpt lat="42.96056" lon="1.91952">
        <ele>518</ele>
        <time>2023-03-24T06:34:05Z</time>
      </trkpt>
      <trkpt lat="42.96051" lon="1.91997">
        <ele>514</ele>
        <time>2023-03-24T06:34:21Z</time>
      </trkpt>
      <trkpt lat="42.96055" lon="1.92017">
        <ele>514</ele>
        <time>2023-03-24T06:34:29Z</time>
      </trkpt>
      <trkpt lat="42.96056" lon="1.92033">
        <ele>512</ele>
        <time>2023-03-24T06:34:35Z</time>
      </trkpt>
      <trkpt lat="42.96061" lon="1.92043">
        <ele>513</ele>
        <time>2023-03-24T06:34:39Z</time>
      </trkpt>
      <trkpt lat="42.96068" lon="1.92052">
        <ele>514</ele>
        <time>2023-03-24T06:34:44Z</time>
      </trkpt>
      <trkpt lat="42.96077" lon="1.9207">
        <ele>515</ele>
        <time>2023-03-24T06:34:52Z</time>
      </trkpt>
      <trkpt lat="42.96078" lon="1.92082">
        <ele>514</ele>
        <time>2023-03-24T06:34:57Z</time>
      </trkpt>
      <trkpt lat="42.96092" lon="1.92117">
        <ele>511</ele>
        <time>2023-03-24T06:35:11Z</time>
      </trkpt>
      <trkpt lat="42.96093" lon="1.92144">
        <ele>507</ele>
        <time>2023-03-24T06:35:21Z</time>
      </trkpt>
      <trkpt lat="42.96125" lon="1.92141">
        <ele>511</ele>
        <time>2023-03-24T06:35:37Z</time>
      </trkpt>
      <trkpt lat="42.96132" lon="1.92151">
        <ele>511</ele>
        <time>2023-03-24T06:35:42Z</time>
      </trkpt>
      <trkpt lat="42.96143" lon="1.9215">
        <ele>512</ele>
        <time>2023-03-24T06:35:48Z</time>
      </trkpt>
      <trkpt lat="42.96179" lon="1.92161">
        <ele>516</ele>
        <time>2023-03-24T06:36:06Z</time>
      </trkpt>
      <trkpt lat="42.9622" lon="1.92213">
        <ele>522</ele>
        <time>2023-03-24T06:36:34Z</time>
      </trkpt>
      <trkpt lat="42.96228" lon="1.92219">
        <ele>523</ele>
        <time>2023-03-24T06:36:39Z</time>
      </trkpt>
      <trkpt lat="42.96272" lon="1.92246">
        <ele>529</ele>
        <time>2023-03-24T06:37:03Z</time>
      </trkpt>
      <trkpt lat="42.9628" lon="1.92248">
        <ele>530</ele>
        <time>2023-03-24T06:37:07Z</time>
      </trkpt>
      <trkpt lat="42.96304" lon="1.92246">
        <ele>532</ele>
        <time>2023-03-24T06:37:19Z</time>
      </trkpt>
      <trkpt lat="42.96311" lon="1.92248">
        <ele>533</ele>
        <time>2023-03-24T06:37:23Z</time>
      </trkpt>
      <trkpt lat="42.96337" lon="1.92267">
        <ele>533</ele>
        <time>2023-03-24T06:37:37Z</time>
      </trkpt>
      <trkpt lat="42.96356" lon="1.92286">
        <ele>529</ele>
        <time>2023-03-24T06:37:49Z</time>
      </trkpt>
      <trkpt lat="42.96359" lon="1.92329">
        <ele>526</ele>
        <time>2023-03-24T06:38:05Z</time>
      </trkpt>
      <trkpt lat="42.96383" lon="1.92479">
        <ele>520</ele>
        <time>2023-03-24T06:39:01Z</time>
      </trkpt>
      <trkpt lat="42.96383" lon="1.9252">
        <ele>519</ele>
        <time>2023-03-24T06:39:16Z</time>
      </trkpt>
      <trkpt lat="42.96379" lon="1.92541">
        <ele>519</ele>
        <time>2023-03-24T06:39:24Z</time>
      </trkpt>
      <trkpt lat="42.96355" lon="1.9261">
        <ele>520</ele>
        <time>2023-03-24T06:39:52Z</time>
      </trkpt>
      <trkpt lat="42.96339" lon="1.92643">
        <ele>521</ele>
        <time>2023-03-24T06:40:07Z</time>
      </trkpt>
      <trkpt lat="42.9633" lon="1.92672">
        <ele>523</ele>
        <time>2023-03-24T06:40:18Z</time>
      </trkpt>
      <trkpt lat="42.96308" lon="1.92727">
        <ele>522</ele>
        <time>2023-03-24T06:40:41Z</time>
      </trkpt>
      <trkpt lat="42.96297" lon="1.92764">
        <ele>522</ele>
        <time>2023-03-24T06:40:56Z</time>
      </trkpt>
      <trkpt lat="42.96278" lon="1.92813">
        <ele>522</ele>
        <time>2023-03-24T06:41:16Z</time>
      </trkpt>
      <trkpt lat="42.96246" lon="1.92871">
        <ele>523</ele>
        <time>2023-03-24T06:41:43Z</time>
      </trkpt>
      <trkpt lat="42.96206" lon="1.92959">
        <ele>521</ele>
        <time>2023-03-24T06:42:21Z</time>
      </trkpt>
      <trkpt lat="42.96181" lon="1.92997">
        <ele>524</ele>
        <time>2023-03-24T06:42:39Z</time>
      </trkpt>
      <trkpt lat="42.96154" lon="1.93033">
        <ele>523</ele>
        <time>2023-03-24T06:42:58Z</time>
      </trkpt>
      <trkpt lat="42.96144" lon="1.93052">
        <ele>522</ele>
        <time>2023-03-24T06:43:07Z</time>
      </trkpt>
      <trkpt lat="42.9614" lon="1.93065">
        <ele>522</ele>
        <time>2023-03-24T06:43:12Z</time>
      </trkpt>
      <trkpt lat="42.96141" lon="1.93088">
        <ele>523</ele>
        <time>2023-03-24T06:43:20Z</time>
      </trkpt>
      <trkpt lat="42.96138" lon="1.93123">
        <ele>522</ele>
        <time>2023-03-24T06:43:33Z</time>
      </trkpt>
      <trkpt lat="42.96131" lon="1.93145">
        <ele>522</ele>
        <time>2023-03-24T06:43:42Z</time>
      </trkpt>
      <trkpt lat="42.96115" lon="1.93177">
        <ele>521</ele>
        <time>2023-03-24T06:43:56Z</time>
      </trkpt>
      <trkpt lat="42.96109" lon="1.93183">
        <ele>521</ele>
        <time>2023-03-24T06:44:00Z</time>
      </trkpt>
      <trkpt lat="42.96094" lon="1.93184">
        <ele>522</ele>
        <time>2023-03-24T06:44:07Z</time>
      </trkpt>
      <trkpt lat="42.96078" lon="1.93181">
        <ele>521</ele>
        <time>2023-03-24T06:44:15Z</time>
      </trkpt>
      <trkpt lat="42.9606" lon="1.93231">
        <ele>515</ele>
        <time>2023-03-24T06:44:36Z</time>
      </trkpt>
      <trkpt lat="42.96059" lon="1.93244">
        <ele>514</ele>
        <time>2023-03-24T06:44:41Z</time>
      </trkpt>
      <trkpt lat="42.96062" lon="1.93253">
        <ele>515</ele>
        <time>2023-03-24T06:44:44Z</time>
      </trkpt>
      <trkpt lat="42.9607" lon="1.93264">
        <ele>515</ele>
        <time>2023-03-24T06:44:50Z</time>
      </trkpt>
      <trkpt lat="42.9608" lon="1.93272">
        <ele>516</ele>
        <time>2023-03-24T06:44:56Z</time>
      </trkpt>
      <trkpt lat="42.96071" lon="1.93275">
        <ele>514</ele>
        <time>2023-03-24T06:45:00Z</time>
      </trkpt>
      <trkpt lat="42.96061" lon="1.9329">
        <ele>511</ele>
        <time>2023-03-24T06:45:08Z</time>
      </trkpt>
      <trkpt lat="42.96052" lon="1.93315">
        <ele>508</ele>
        <time>2023-03-24T06:45:18Z</time>
      </trkpt>
      <trkpt lat="42.96039" lon="1.93366">
        <ele>504</ele>
        <time>2023-03-24T06:45:38Z</time>
      </trkpt>
      <trkpt lat="42.96032" lon="1.93382">
        <ele>503</ele>
        <time>2023-03-24T06:45:45Z</time>
      </trkpt>
      <trkpt lat="42.9601" lon="1.93412">
        <ele>502</ele>
        <time>2023-03-24T06:46:00Z</time>
      </trkpt>
      <trkpt lat="42.95948" lon="1.93468">
        <ele>489</ele>
        <time>2023-03-24T06:46:37Z</time>
      </trkpt>
      <trkpt lat="42.95942" lon="1.93476">
        <ele>487</ele>
        <time>2023-03-24T06:46:42Z</time>
      </trkpt>
      <trkpt lat="42.95938" lon="1.93488">
        <ele>486</ele>
        <time>2023-03-24T06:46:46Z</time>
      </trkpt>
      <trkpt lat="42.95938" lon="1.93487">
        <ele>486</ele>
        <time>2023-03-24T06:46:47Z</time>
      </trkpt>
      <trkpt lat="42.9592" lon="1.93665">
        <ele>485</ele>
        <time>2023-03-24T06:47:53Z</time>
      </trkpt>
      <trkpt lat="42.95924" lon="1.93811">
        <ele>476</ele>
        <time>2023-03-24T06:48:46Z</time>
      </trkpt>
      <trkpt lat="42.9592" lon="1.93895">
        <ele>473</ele>
        <time>2023-03-24T06:49:17Z</time>
      </trkpt>
      <trkpt lat="42.95934" lon="1.93924">
        <ele>473</ele>
        <time>2023-03-24T06:49:30Z</time>
      </trkpt>
      <trkpt lat="42.9594" lon="1.93932">
        <ele>473</ele>
        <time>2023-03-24T06:49:34Z</time>
      </trkpt>
      <trkpt lat="42.95947" lon="1.93937">
        <ele>473</ele>
        <time>2023-03-24T06:49:38Z</time>
      </trkpt>
      <trkpt lat="42.95962" lon="1.93944">
        <ele>474</ele>
        <time>2023-03-24T06:49:46Z</time>
      </trkpt>
      <trkpt lat="42.95988" lon="1.93973">
        <ele>474</ele>
        <time>2023-03-24T06:50:03Z</time>
      </trkpt>
      <trkpt lat="42.95996" lon="1.9398">
        <ele>474</ele>
        <time>2023-03-24T06:50:07Z</time>
      </trkpt>
      <trkpt lat="42.96005" lon="1.93985">
        <ele>474</ele>
        <time>2023-03-24T06:50:12Z</time>
      </trkpt>
      <trkpt lat="42.96025" lon="1.93991">
        <ele>476</ele>
        <time>2023-03-24T06:50:22Z</time>
      </trkpt>
      <trkpt lat="42.96032" lon="1.93998">
        <ele>476</ele>
        <time>2023-03-24T06:50:27Z</time>
      </trkpt>
      <trkpt lat="42.96041" lon="1.94014">
        <ele>475</ele>
        <time>2023-03-24T06:50:34Z</time>
      </trkpt>
      <trkpt lat="42.96045" lon="1.94015">
        <ele>476</ele>
        <time>2023-03-24T06:50:36Z</time>
      </trkpt>
      <trkpt lat="42.96064" lon="1.94">
        <ele>478</ele>
        <time>2023-03-24T06:50:47Z</time>
      </trkpt>
      <trkpt lat="42.96075" lon="1.93997">
        <ele>480</ele>
        <time>2023-03-24T06:50:53Z</time>
      </trkpt>
      <trkpt lat="42.96113" lon="1.94004">
        <ele>482</ele>
        <time>2023-03-24T06:51:12Z</time>
      </trkpt>
      <trkpt lat="42.96136" lon="1.94012">
        <ele>483</ele>
        <time>2023-03-24T06:51:24Z</time>
      </trkpt>
      <trkpt lat="42.96165" lon="1.94031">
        <ele>486</ele>
        <time>2023-03-24T06:51:40Z</time>
      </trkpt>
      <trkpt lat="42.96171" lon="1.94044">
        <ele>486</ele>
        <time>2023-03-24T06:51:46Z</time>
      </trkpt>
      <trkpt lat="42.96167" lon="1.94049">
        <ele>486</ele>
        <time>2023-03-24T06:51:48Z</time>
      </trkpt>
      <trkpt lat="42.9612" lon="1.94251">
        <ele>485</ele>
        <time>2023-03-24T06:53:06Z</time>
      </trkpt>
      <trkpt lat="42.9611" lon="1.94315">
        <ele>484</ele>
        <time>2023-03-24T06:53:30Z</time>
      </trkpt>
      <trkpt lat="42.96115" lon="1.94348">
        <ele>483</ele>
        <time>2023-03-24T06:53:42Z</time>
      </trkpt>
      <trkpt lat="42.9613" lon="1.94403">
        <ele>479</ele>
        <time>2023-03-24T06:54:04Z</time>
      </trkpt>
      <trkpt lat="42.96131" lon="1.94415">
        <ele>479</ele>
        <time>2023-03-24T06:54:08Z</time>
      </trkpt>
      <trkpt lat="42.96126" lon="1.94453">
        <ele>478</ele>
        <time>2023-03-24T06:54:22Z</time>
      </trkpt>
      <trkpt lat="42.96088" lon="1.94627">
        <ele>483</ele>
        <time>2023-03-24T06:55:29Z</time>
      </trkpt>
      <trkpt lat="42.96017" lon="1.94799">
        <ele>491</ele>
        <time>2023-03-24T06:56:41Z</time>
      </trkpt>
      <trkpt lat="42.95992" lon="1.94865">
        <ele>496</ele>
        <time>2023-03-24T06:57:08Z</time>
      </trkpt>
      <trkpt lat="42.95973" lon="1.94936">
        <ele>497</ele>
        <time>2023-03-24T06:57:36Z</time>
      </trkpt>
      <trkpt lat="42.95968" lon="1.94986">
        <ele>497</ele>
        <time>2023-03-24T06:57:54Z</time>
      </trkpt>
      <trkpt lat="42.95947" lon="1.95053">
        <ele>495</ele>
        <time>2023-03-24T06:58:21Z</time>
      </trkpt>
      <trkpt lat="42.95902" lon="1.95143">
        <ele>494</ele>
        <time>2023-03-24T06:59:01Z</time>
      </trkpt>
      <trkpt lat="42.95893" lon="1.95186">
        <ele>492</ele>
        <time>2023-03-24T06:59:17Z</time>
      </trkpt>
      <trkpt lat="42.95884" lon="1.95213">
        <ele>490</ele>
        <time>2023-03-24T06:59:28Z</time>
      </trkpt>
      <trkpt lat="42.95864" lon="1.95237">
        <ele>486</ele>
        <time>2023-03-24T06:59:42Z</time>
      </trkpt>
      <trkpt lat="42.95839" lon="1.95294">
        <ele>484</ele>
        <time>2023-03-24T07:00:06Z</time>
      </trkpt>
      <trkpt lat="42.95833" lon="1.95321">
        <ele>485</ele>
        <time>2023-03-24T07:00:16Z</time>
      </trkpt>
      <trkpt lat="42.95829" lon="1.9543">
        <ele>485</ele>
        <time>2023-03-24T07:00:56Z</time>
      </trkpt>
      <trkpt lat="42.95821" lon="1.95523">
        <ele>482</ele>
        <time>2023-03-24T07:01:31Z</time>
      </trkpt>
      <trkpt lat="42.9582" lon="1.95596">
        <ele>481</ele>
        <time>2023-03-24T07:01:57Z</time>
      </trkpt>
      <trkpt lat="42.95803" lon="1.95725">
        <ele>476</ele>
        <time>2023-03-24T07:02:45Z</time>
      </trkpt>
      <trkpt lat="42.95784" lon="1.95824">
        <ele>474</ele>
        <time>2023-03-24T07:03:23Z</time>
      </trkpt>
      <trkpt lat="42.95762" lon="1.9597">
        <ele>476</ele>
        <time>2023-03-24T07:04:17Z</time>
      </trkpt>
      <trkpt lat="42.95757" lon="1.96031">
        <ele>476</ele>
        <time>2023-03-24T07:04:40Z</time>
      </trkpt>
      <trkpt lat="42.95758" lon="1.96039">
        <ele>476</ele>
        <time>2023-03-24T07:04:43Z</time>
      </trkpt>
      <trkpt lat="42.95756" lon="1.96043">
        <ele>476</ele>
        <time>2023-03-24T07:04:45Z</time>
      </trkpt>
      <trkpt lat="42.957" lon="1.96309">
        <ele>465</ele>
        <time>2023-03-24T07:06:26Z</time>
      </trkpt>
      <trkpt lat="42.95691" lon="1.96365">
        <ele>464</ele>
        <time>2023-03-24T07:06:47Z</time>
      </trkpt>
      <trkpt lat="42.95682" lon="1.96451">
        <ele>464</ele>
        <time>2023-03-24T07:07:19Z</time>
      </trkpt>
      <trkpt lat="42.9567" lon="1.96495">
        <ele>462</ele>
        <time>2023-03-24T07:07:36Z</time>
      </trkpt>
      <trkpt lat="42.95668" lon="1.96537">
        <ele>462</ele>
        <time>2023-03-24T07:07:51Z</time>
      </trkpt>
      <trkpt lat="42.9565" lon="1.9659">
        <ele>458</ele>
        <time>2023-03-24T07:08:13Z</time>
      </trkpt>
      <trkpt lat="42.95646" lon="1.96598">
        <ele>457</ele>
        <time>2023-03-24T07:08:16Z</time>
      </trkpt>
      <trkpt lat="42.95617" lon="1.96646">
        <ele>451</ele>
        <time>2023-03-24T07:08:39Z</time>
      </trkpt>
      <trkpt lat="42.95571" lon="1.96715">
        <ele>438</ele>
        <time>2023-03-24T07:09:13Z</time>
      </trkpt>
      <trkpt lat="42.95551" lon="1.96732">
        <ele>431</ele>
        <time>2023-03-24T07:09:25Z</time>
      </trkpt>
      <trkpt lat="42.95547" lon="1.96738">
        <ele>429</ele>
        <time>2023-03-24T07:09:28Z</time>
      </trkpt>
      <trkpt lat="42.95543" lon="1.96773">
        <ele>425</ele>
        <time>2023-03-24T07:09:41Z</time>
      </trkpt>
      <trkpt lat="42.95557" lon="1.96837">
        <ele>423</ele>
        <time>2023-03-24T07:10:06Z</time>
      </trkpt>
      <trkpt lat="42.95561" lon="1.96876">
        <ele>419</ele>
        <time>2023-03-24T07:10:20Z</time>
      </trkpt>
      <trkpt lat="42.9557" lon="1.96909">
        <ele>417</ele>
        <time>2023-03-24T07:10:33Z</time>
      </trkpt>
      <trkpt lat="42.95568" lon="1.96916">
        <ele>416</ele>
        <time>2023-03-24T07:10:36Z</time>
      </trkpt>
      <trkpt lat="42.95561" lon="1.96916">
        <ele>415</ele>
        <time>2023-03-24T07:10:39Z</time>
      </trkpt>
      <trkpt lat="42.95557" lon="1.96914">
        <ele>415</ele>
        <time>2023-03-24T07:10:41Z</time>
      </trkpt>
      <trkpt lat="42.95539" lon="1.96866">
        <ele>417</ele>
        <time>2023-03-24T07:11:01Z</time>
      </trkpt>
      <trkpt lat="42.95536" lon="1.96862">
        <ele>416</ele>
        <time>2023-03-24T07:11:03Z</time>
      </trkpt>
      <trkpt lat="42.95529" lon="1.96861">
        <ele>415</ele>
        <time>2023-03-24T07:11:07Z</time>
      </trkpt>
      <trkpt lat="42.95525" lon="1.96865">
        <ele>414</ele>
        <time>2023-03-24T07:11:09Z</time>
      </trkpt>
      <trkpt lat="42.9552" lon="1.96878">
        <ele>413</ele>
        <time>2023-03-24T07:11:14Z</time>
      </trkpt>
      <trkpt lat="42.95514" lon="1.96882">
        <ele>411</ele>
        <time>2023-03-24T07:11:18Z</time>
      </trkpt>
      <trkpt lat="42.95506" lon="1.96877">
        <ele>410</ele>
        <time>2023-03-24T07:11:22Z</time>
      </trkpt>
      <trkpt lat="42.95493" lon="1.96847">
        <ele>410</ele>
        <time>2023-03-24T07:11:35Z</time>
      </trkpt>
      <trkpt lat="42.9549" lon="1.96844">
        <ele>410</ele>
        <time>2023-03-24T07:11:37Z</time>
      </trkpt>
      <trkpt lat="42.95454" lon="1.96843">
        <ele>407</ele>
        <time>2023-03-24T07:11:55Z</time>
      </trkpt>
      <trkpt lat="42.95454" lon="1.96831">
        <ele>407</ele>
        <time>2023-03-24T07:11:59Z</time>
      </trkpt>
      <trkpt lat="42.95451" lon="1.96823">
        <ele>407</ele>
        <time>2023-03-24T07:12:03Z</time>
      </trkpt>
      <trkpt lat="42.95399" lon="1.96797">
        <ele>403</ele>
        <time>2023-03-24T07:12:30Z</time>
      </trkpt>
      <trkpt lat="42.95395" lon="1.96802">
        <ele>403</ele>
        <time>2023-03-24T07:12:33Z</time>
      </trkpt>
      <trkpt lat="42.95394" lon="1.96807">
        <ele>403</ele>
        <time>2023-03-24T07:12:35Z</time>
      </trkpt>
      <trkpt lat="42.95416" lon="1.96874">
        <ele>402</ele>
        <time>2023-03-24T07:13:02Z</time>
      </trkpt>
      <trkpt lat="42.95419" lon="1.96891">
        <ele>402</ele>
        <time>2023-03-24T07:13:08Z</time>
      </trkpt>
      <trkpt lat="42.95427" lon="1.96982">
        <ele>403</ele>
        <time>2023-03-24T07:13:42Z</time>
      </trkpt>
      <trkpt lat="42.95433" lon="1.97022">
        <ele>403</ele>
        <time>2023-03-24T07:13:57Z</time>
      </trkpt>
      <trkpt lat="42.95433" lon="1.97048">
        <ele>402</ele>
        <time>2023-03-24T07:14:06Z</time>
      </trkpt>
      <trkpt lat="42.95427" lon="1.97047">
        <ele>403</ele>
        <time>2023-03-24T07:14:09Z</time>
      </trkpt>
      <trkpt lat="42.95428" lon="1.97048">
        <ele>403</ele>
        <time>2023-03-24T07:14:10Z</time>
      </trkpt>
      <trkpt lat="42.9542" lon="1.97035">
        <ele>403</ele>
        <time>2023-03-24T07:14:16Z</time>
      </trkpt>
      <trkpt lat="42.95413" lon="1.9703">
        <ele>403</ele>
        <time>2023-03-24T07:14:20Z</time>
      </trkpt>
      <trkpt lat="42.95311" lon="1.96981">
        <ele>404</ele>
        <time>2023-03-24T07:15:14Z</time>
      </trkpt>
      <trkpt lat="42.95322" lon="1.96939">
        <ele>403</ele>
        <time>2023-03-24T07:15:30Z</time>
      </trkpt>
      <trkpt lat="42.95338" lon="1.96906">
        <ele>403</ele>
        <time>2023-03-24T07:15:45Z</time>
      </trkpt>
      <trkpt lat="42.9535" lon="1.96861">
        <ele>404</ele>
        <time>2023-03-24T07:16:03Z</time>
      </trkpt>
      <trkpt lat="42.95259" lon="1.9682">
        <ele>407</ele>
        <time>2023-03-24T07:16:50Z</time>
      </trkpt>
      <trkpt lat="42.95257" lon="1.96825">
        <ele>406</ele>
        <time>2023-03-24T07:16:53Z</time>
      </trkpt>
      <trkpt lat="42.95197" lon="1.96792">
        <ele>411</ele>
        <time>2023-03-24T07:17:25Z</time>
      </trkpt>
      <trkpt lat="42.95188" lon="1.96789">
        <ele>411</ele>
        <time>2023-03-24T07:17:30Z</time>
      </trkpt>
      <trkpt lat="42.95164" lon="1.96788">
        <ele>412</ele>
        <time>2023-03-24T07:17:42Z</time>
      </trkpt>
      <trkpt lat="42.95122" lon="1.96791">
        <ele>412</ele>
        <time>2023-03-24T07:18:03Z</time>
      </trkpt>
      <trkpt lat="42.95119" lon="1.96794">
        <ele>412</ele>
        <time>2023-03-24T07:18:04Z</time>
      </trkpt>
      <trkpt lat="42.95107" lon="1.96795">
        <ele>412</ele>
        <time>2023-03-24T07:18:10Z</time>
      </trkpt>
      <trkpt lat="42.95079" lon="1.96807">
        <ele>411</ele>
        <time>2023-03-24T07:18:25Z</time>
      </trkpt>
      <trkpt lat="42.95077" lon="1.96788">
        <ele>412</ele>
        <time>2023-03-24T07:18:32Z</time>
      </trkpt>
      <trkpt lat="42.95066" lon="1.96739">
        <ele>414</ele>
        <time>2023-03-24T07:18:51Z</time>
      </trkpt>
      <trkpt lat="42.95064" lon="1.96716">
        <ele>414</ele>
        <time>2023-03-24T07:18:59Z</time>
      </trkpt>
      <trkpt lat="42.95067" lon="1.96681">
        <ele>414</ele>
        <time>2023-03-24T07:19:12Z</time>
      </trkpt>
      <trkpt lat="42.95062" lon="1.96641">
        <ele>415</ele>
        <time>2023-03-24T07:19:27Z</time>
      </trkpt>
      <trkpt lat="42.95063" lon="1.9657">
        <ele>415</ele>
        <time>2023-03-24T07:19:53Z</time>
      </trkpt>
      <trkpt lat="42.95053" lon="1.96564">
        <ele>415</ele>
        <time>2023-03-24T07:19:59Z</time>
      </trkpt>
      <trkpt lat="42.95048" lon="1.96555">
        <ele>415</ele>
        <time>2023-03-24T07:20:03Z</time>
      </trkpt>
      <trkpt lat="42.95047" lon="1.96547">
        <ele>415</ele>
        <time>2023-03-24T07:20:06Z</time>
      </trkpt>
      <trkpt lat="42.95061" lon="1.96484">
        <ele>415</ele>
        <time>2023-03-24T07:20:30Z</time>
      </trkpt>
      <trkpt lat="42.95056" lon="1.96474">
        <ele>415</ele>
        <time>2023-03-24T07:20:34Z</time>
      </trkpt>
      <trkpt lat="42.94935" lon="1.96395">
        <ele>426</ele>
        <time>2023-03-24T07:21:41Z</time>
      </trkpt>
      <trkpt lat="42.94912" lon="1.96385">
        <ele>428</ele>
        <time>2023-03-24T07:21:54Z</time>
      </trkpt>
      <trkpt lat="42.94863" lon="1.96371">
        <ele>432</ele>
        <time>2023-03-24T07:22:19Z</time>
      </trkpt>
      <trkpt lat="42.94865" lon="1.96356">
        <ele>433</ele>
        <time>2023-03-24T07:22:24Z</time>
      </trkpt>
      <trkpt lat="42.94865" lon="1.96282">
        <ele>439</ele>
        <time>2023-03-24T07:22:51Z</time>
      </trkpt>
      <trkpt lat="42.94862" lon="1.96244">
        <ele>442</ele>
        <time>2023-03-24T07:23:05Z</time>
      </trkpt>
      <trkpt lat="42.94856" lon="1.96243">
        <ele>443</ele>
        <time>2023-03-24T07:23:08Z</time>
      </trkpt>
      <trkpt lat="42.94836" lon="1.96214">
        <ele>449</ele>
        <time>2023-03-24T07:23:23Z</time>
      </trkpt>
      <trkpt lat="42.94826" lon="1.96208">
        <ele>451</ele>
        <time>2023-03-24T07:23:28Z</time>
      </trkpt>
      <trkpt lat="42.94817" lon="1.96207">
        <ele>452</ele>
        <time>2023-03-24T07:23:33Z</time>
      </trkpt>
      <trkpt lat="42.94763" lon="1.96211">
        <ele>459</ele>
        <time>2023-03-24T07:24:00Z</time>
      </trkpt>
      <trkpt lat="42.9475" lon="1.9621">
        <ele>461</ele>
        <time>2023-03-24T07:24:06Z</time>
      </trkpt>
      <trkpt lat="42.94742" lon="1.96206">
        <ele>463</ele>
        <time>2023-03-24T07:24:11Z</time>
      </trkpt>
      <trkpt lat="42.94732" lon="1.96196">
        <ele>465</ele>
        <time>2023-03-24T07:24:17Z</time>
      </trkpt>
      <trkpt lat="42.94717" lon="1.96168">
        <ele>470</ele>
        <time>2023-03-24T07:24:30Z</time>
      </trkpt>
      <trkpt lat="42.94692" lon="1.96074">
        <ele>482</ele>
        <time>2023-03-24T07:25:06Z</time>
      </trkpt>
      <trkpt lat="42.94684" lon="1.96062">
        <ele>484</ele>
        <time>2023-03-24T07:25:12Z</time>
      </trkpt>
      <trkpt lat="42.94618" lon="1.95999">
        <ele>497</ele>
        <time>2023-03-24T07:25:53Z</time>
      </trkpt>
      <trkpt lat="42.94614" lon="1.95989">
        <ele>499</ele>
        <time>2023-03-24T07:25:57Z</time>
      </trkpt>
      <trkpt lat="42.94603" lon="1.95908">
        <ele>508</ele>
        <time>2023-03-24T07:26:27Z</time>
      </trkpt>
      <trkpt lat="42.94599" lon="1.95894">
        <ele>509</ele>
        <time>2023-03-24T07:26:32Z</time>
      </trkpt>
      <trkpt lat="42.94587" lon="1.95871">
        <ele>513</ele>
        <time>2023-03-24T07:26:43Z</time>
      </trkpt>
      <trkpt lat="42.94586" lon="1.95847">
        <ele>514</ele>
        <time>2023-03-24T07:26:52Z</time>
      </trkpt>
      <trkpt lat="42.94563" lon="1.95752">
        <ele>516</ele>
        <time>2023-03-24T07:27:28Z</time>
      </trkpt>
      <trkpt lat="42.9456" lon="1.9572">
        <ele>517</ele>
        <time>2023-03-24T07:27:40Z</time>
      </trkpt>
      <trkpt lat="42.94562" lon="1.95667">
        <ele>520</ele>
        <time>2023-03-24T07:27:59Z</time>
      </trkpt>
      <trkpt lat="42.94564" lon="1.9565">
        <ele>521</ele>
        <time>2023-03-24T07:28:06Z</time>
      </trkpt>
      <trkpt lat="42.94562" lon="1.9561">
        <ele>521</ele>
        <time>2023-03-24T07:28:20Z</time>
      </trkpt>
      <trkpt lat="42.94563" lon="1.95555">
        <ele>523</ele>
        <time>2023-03-24T07:28:41Z</time>
      </trkpt>
      <trkpt lat="42.94528" lon="1.95521">
        <ele>521</ele>
        <time>2023-03-24T07:29:02Z</time>
      </trkpt>
      <trkpt lat="42.94502" lon="1.95485">
        <ele>522</ele>
        <time>2023-03-24T07:29:21Z</time>
      </trkpt>
      <trkpt lat="42.94476" lon="1.95453">
        <ele>517</ele>
        <time>2023-03-24T07:29:38Z</time>
      </trkpt>
      <trkpt lat="42.94452" lon="1.95404">
        <ele>512</ele>
        <time>2023-03-24T07:30:00Z</time>
      </trkpt>
      <trkpt lat="42.94413" lon="1.95346">
        <ele>501</ele>
        <time>2023-03-24T07:30:29Z</time>
      </trkpt>
      <trkpt lat="42.94393" lon="1.9532">
        <ele>500</ele>
        <time>2023-03-24T07:30:42Z</time>
      </trkpt>
      <trkpt lat="42.94385" lon="1.95313">
        <ele>500</ele>
        <time>2023-03-24T07:30:47Z</time>
      </trkpt>
      <trkpt lat="42.94337" lon="1.95288">
        <ele>498</ele>
        <time>2023-03-24T07:31:13Z</time>
      </trkpt>
      <trkpt lat="42.94332" lon="1.95291">
        <ele>498</ele>
        <time>2023-03-24T07:31:16Z</time>
      </trkpt>
      <trkpt lat="42.9433" lon="1.95286">
        <ele>498</ele>
        <time>2023-03-24T07:31:18Z</time>
      </trkpt>
      <trkpt lat="42.94313" lon="1.95279">
        <ele>501</ele>
        <time>2023-03-24T07:31:27Z</time>
      </trkpt>
      <trkpt lat="42.94299" lon="1.95279">
        <ele>503</ele>
        <time>2023-03-24T07:31:34Z</time>
      </trkpt>
      <trkpt lat="42.94281" lon="1.95263">
        <ele>506</ele>
        <time>2023-03-24T07:31:44Z</time>
      </trkpt>
      <trkpt lat="42.94219" lon="1.95214">
        <ele>521</ele>
        <time>2023-03-24T07:32:20Z</time>
      </trkpt>
      <trkpt lat="42.94201" lon="1.95195">
        <ele>527</ele>
        <time>2023-03-24T07:32:32Z</time>
      </trkpt>
      <trkpt lat="42.94189" lon="1.95187">
        <ele>531</ele>
        <time>2023-03-24T07:32:38Z</time>
      </trkpt>
      <trkpt lat="42.94176" lon="1.95183">
        <ele>535</ele>
        <time>2023-03-24T07:32:45Z</time>
      </trkpt>
      <trkpt lat="42.94158" lon="1.95182">
        <ele>539</ele>
        <time>2023-03-24T07:32:54Z</time>
      </trkpt>
      <trkpt lat="42.94148" lon="1.95177">
        <ele>542</ele>
        <time>2023-03-24T07:32:59Z</time>
      </trkpt>
      <trkpt lat="42.94114" lon="1.95151">
        <ele>552</ele>
        <time>2023-03-24T07:33:19Z</time>
      </trkpt>
      <trkpt lat="42.94105" lon="1.95142">
        <ele>554</ele>
        <time>2023-03-24T07:33:24Z</time>
      </trkpt>
      <trkpt lat="42.94091" lon="1.95102">
        <ele>560</ele>
        <time>2023-03-24T07:33:41Z</time>
      </trkpt>
      <trkpt lat="42.94085" lon="1.95093">
        <ele>562</ele>
        <time>2023-03-24T07:33:45Z</time>
      </trkpt>
      <trkpt lat="42.94075" lon="1.95083">
        <ele>565</ele>
        <time>2023-03-24T07:33:51Z</time>
      </trkpt>
      <trkpt lat="42.94052" lon="1.95016">
        <ele>573</ele>
        <time>2023-03-24T07:34:18Z</time>
      </trkpt>
      <trkpt lat="42.94043" lon="1.95006">
        <ele>576</ele>
        <time>2023-03-24T07:34:24Z</time>
      </trkpt>
      <trkpt lat="42.94032" lon="1.9495">
        <ele>584</ele>
        <time>2023-03-24T07:34:45Z</time>
      </trkpt>
      <trkpt lat="42.94033" lon="1.94895">
        <ele>588</ele>
        <time>2023-03-24T07:35:06Z</time>
      </trkpt>
      <trkpt lat="42.9403" lon="1.94881">
        <ele>589</ele>
        <time>2023-03-24T07:35:11Z</time>
      </trkpt>
      <trkpt lat="42.94028" lon="1.94847">
        <ele>591</ele>
        <time>2023-03-24T07:35:23Z</time>
      </trkpt>
      <trkpt lat="42.94033" lon="1.94757">
        <ele>593</ele>
        <time>2023-03-24T07:35:56Z</time>
      </trkpt>
      <trkpt lat="42.94022" lon="1.94722">
        <ele>597</ele>
        <time>2023-03-24T07:36:10Z</time>
      </trkpt>
      <trkpt lat="42.94028" lon="1.94657">
        <ele>598</ele>
        <time>2023-03-24T07:36:34Z</time>
      </trkpt>
      <trkpt lat="42.94026" lon="1.94638">
        <ele>600</ele>
        <time>2023-03-24T07:36:41Z</time>
      </trkpt>
      <trkpt lat="42.9403" lon="1.94607">
        <ele>600</ele>
        <time>2023-03-24T07:36:53Z</time>
      </trkpt>
      <trkpt lat="42.94037" lon="1.94581">
        <ele>599</ele>
        <time>2023-03-24T07:37:03Z</time>
      </trkpt>
      <trkpt lat="42.94034" lon="1.94562">
        <ele>601</ele>
        <time>2023-03-24T07:37:10Z</time>
      </trkpt>
      <trkpt lat="42.9405" lon="1.9452">
        <ele>599</ele>
        <time>2023-03-24T07:37:28Z</time>
      </trkpt>
      <trkpt lat="42.94053" lon="1.94497">
        <ele>600</ele>
        <time>2023-03-24T07:37:36Z</time>
      </trkpt>
      <trkpt lat="42.94071" lon="1.94465">
        <ele>597</ele>
        <time>2023-03-24T07:37:51Z</time>
      </trkpt>
      <trkpt lat="42.94093" lon="1.94394">
        <ele>597</ele>
        <time>2023-03-24T07:38:19Z</time>
      </trkpt>
      <trkpt lat="42.94096" lon="1.94352">
        <ele>600</ele>
        <time>2023-03-24T07:38:35Z</time>
      </trkpt>
      <trkpt lat="42.9409" lon="1.94342">
        <ele>604</ele>
        <time>2023-03-24T07:38:39Z</time>
      </trkpt>
      <trkpt lat="42.94092" lon="1.94328">
        <ele>604</ele>
        <time>2023-03-24T07:38:45Z</time>
      </trkpt>
      <trkpt lat="42.94089" lon="1.9429">
        <ele>609</ele>
        <time>2023-03-24T07:38:59Z</time>
      </trkpt>
      <trkpt lat="42.94092" lon="1.94269">
        <ele>609</ele>
        <time>2023-03-24T07:39:06Z</time>
      </trkpt>
      <trkpt lat="42.94092" lon="1.9425">
        <ele>611</ele>
        <time>2023-03-24T07:39:13Z</time>
      </trkpt>
      <trkpt lat="42.94099" lon="1.94218">
        <ele>612</ele>
        <time>2023-03-24T07:39:26Z</time>
      </trkpt>
      <trkpt lat="42.94099" lon="1.94204">
        <ele>613</ele>
        <time>2023-03-24T07:39:31Z</time>
      </trkpt>
      <trkpt lat="42.94107" lon="1.94191">
        <ele>611</ele>
        <time>2023-03-24T07:39:37Z</time>
      </trkpt>
      <trkpt lat="42.94115" lon="1.94185">
        <ele>609</ele>
        <time>2023-03-24T07:39:42Z</time>
      </trkpt>
      <trkpt lat="42.94124" lon="1.9418">
        <ele>606</ele>
        <time>2023-03-24T07:39:46Z</time>
      </trkpt>
      <trkpt lat="42.94133" lon="1.94183">
        <ele>602</ele>
        <time>2023-03-24T07:39:51Z</time>
      </trkpt>
      <trkpt lat="42.94138" lon="1.94163">
        <ele>602</ele>
        <time>2023-03-24T07:39:59Z</time>
      </trkpt>
      <trkpt lat="42.94139" lon="1.9415">
        <ele>603</ele>
        <time>2023-03-24T07:40:04Z</time>
      </trkpt>
      <trkpt lat="42.9415" lon="1.9411">
        <ele>603</ele>
        <time>2023-03-24T07:40:19Z</time>
      </trkpt>
      <trkpt lat="42.94151" lon="1.94091">
        <ele>604</ele>
        <time>2023-03-24T07:40:26Z</time>
      </trkpt>
      <trkpt lat="42.94155" lon="1.94072">
        <ele>604</ele>
        <time>2023-03-24T07:40:33Z</time>
      </trkpt>
      <trkpt lat="42.94148" lon="1.94027">
        <ele>611</ele>
        <time>2023-03-24T07:40:50Z</time>
      </trkpt>
      <trkpt lat="42.94147" lon="1.94009">
        <ele>613</ele>
        <time>2023-03-24T07:40:57Z</time>
      </trkpt>
      <trkpt lat="42.94148" lon="1.93978">
        <ele>615</ele>
        <time>2023-03-24T07:41:08Z</time>
      </trkpt>
      <trkpt lat="42.94157" lon="1.93899">
        <ele>614</ele>
        <time>2023-03-24T07:41:38Z</time>
      </trkpt>
      <trkpt lat="42.94157" lon="1.93858">
        <ele>615</ele>
        <time>2023-03-24T07:41:53Z</time>
      </trkpt>
      <trkpt lat="42.94159" lon="1.93843">
        <ele>615</ele>
        <time>2023-03-24T07:41:58Z</time>
      </trkpt>
      <trkpt lat="42.9416" lon="1.93805">
        <ele>616</ele>
        <time>2023-03-24T07:42:12Z</time>
      </trkpt>
      <trkpt lat="42.94165" lon="1.93782">
        <ele>614</ele>
        <time>2023-03-24T07:42:21Z</time>
      </trkpt>
      <trkpt lat="42.9418" lon="1.93753">
        <ele>608</ele>
        <time>2023-03-24T07:42:34Z</time>
      </trkpt>
      <trkpt lat="42.94181" lon="1.9374">
        <ele>609</ele>
        <time>2023-03-24T07:42:39Z</time>
      </trkpt>
      <trkpt lat="42.94197" lon="1.93669">
        <ele>610</ele>
        <time>2023-03-24T07:43:06Z</time>
      </trkpt>
      <trkpt lat="42.94196" lon="1.93656">
        <ele>612</ele>
        <time>2023-03-24T07:43:11Z</time>
      </trkpt>
      <trkpt lat="42.94205" lon="1.93621">
        <ele>612</ele>
        <time>2023-03-24T07:43:24Z</time>
      </trkpt>
      <trkpt lat="42.94219" lon="1.93526">
        <ele>613</ele>
        <time>2023-03-24T07:44:00Z</time>
      </trkpt>
      <trkpt lat="42.94232" lon="1.93493">
        <ele>609</ele>
        <time>2023-03-24T07:44:14Z</time>
      </trkpt>
      <trkpt lat="42.9424" lon="1.93458">
        <ele>606</ele>
        <time>2023-03-24T07:44:27Z</time>
      </trkpt>
      <trkpt lat="42.94238" lon="1.93438">
        <ele>608</ele>
        <time>2023-03-24T07:44:34Z</time>
      </trkpt>
      <trkpt lat="42.94242" lon="1.9341">
        <ele>607</ele>
        <time>2023-03-24T07:44:45Z</time>
      </trkpt>
      <trkpt lat="42.94252" lon="1.93372">
        <ele>604</ele>
        <time>2023-03-24T07:45:00Z</time>
      </trkpt>
      <trkpt lat="42.94252" lon="1.93358">
        <ele>605</ele>
        <time>2023-03-24T07:45:05Z</time>
      </trkpt>
      <trkpt lat="42.94256" lon="1.93323">
        <ele>606</ele>
        <time>2023-03-24T07:45:18Z</time>
      </trkpt>
      <trkpt lat="42.94262" lon="1.93302">
        <ele>606</ele>
        <time>2023-03-24T07:45:26Z</time>
      </trkpt>
      <trkpt lat="42.94262" lon="1.93287">
        <ele>608</ele>
        <time>2023-03-24T07:45:31Z</time>
      </trkpt>
      <trkpt lat="42.94273" lon="1.93226">
        <ele>609</ele>
        <time>2023-03-24T07:45:54Z</time>
      </trkpt>
      <trkpt lat="42.94284" lon="1.93147">
        <ele>610</ele>
        <time>2023-03-24T07:46:24Z</time>
      </trkpt>
      <trkpt lat="42.94294" lon="1.93127">
        <ele>607</ele>
        <time>2023-03-24T07:46:33Z</time>
      </trkpt>
      <trkpt lat="42.94301" lon="1.93105">
        <ele>605</ele>
        <time>2023-03-24T07:46:42Z</time>
      </trkpt>
      <trkpt lat="42.94316" lon="1.93036">
        <ele>603</ele>
        <time>2023-03-24T07:47:08Z</time>
      </trkpt>
      <trkpt lat="42.94321" lon="1.93024">
        <ele>601</ele>
        <time>2023-03-24T07:47:13Z</time>
      </trkpt>
      <trkpt lat="42.94336" lon="1.93006">
        <ele>593</ele>
        <time>2023-03-24T07:47:23Z</time>
      </trkpt>
      <trkpt lat="42.94352" lon="1.92974">
        <ele>587</ele>
        <time>2023-03-24T07:47:37Z</time>
      </trkpt>
      <trkpt lat="42.9436" lon="1.92946">
        <ele>584</ele>
        <time>2023-03-24T07:47:48Z</time>
      </trkpt>
      <trkpt lat="42.9436" lon="1.92934">
        <ele>585</ele>
        <time>2023-03-24T07:47:53Z</time>
      </trkpt>
      <trkpt lat="42.94383" lon="1.92827">
        <ele>582</ele>
        <time>2023-03-24T07:48:33Z</time>
      </trkpt>
      <trkpt lat="42.94384" lon="1.92811">
        <ele>583</ele>
        <time>2023-03-24T07:48:39Z</time>
      </trkpt>
      <trkpt lat="42.9439" lon="1.92784">
        <ele>583</ele>
        <time>2023-03-24T07:48:50Z</time>
      </trkpt>
      <trkpt lat="42.94408" lon="1.9274">
        <ele>577</ele>
        <time>2023-03-24T07:49:08Z</time>
      </trkpt>
      <trkpt lat="42.94436" lon="1.92692">
        <ele>571</ele>
        <time>2023-03-24T07:49:31Z</time>
      </trkpt>
      <trkpt lat="42.94441" lon="1.92679">
        <ele>570</ele>
        <time>2023-03-24T07:49:36Z</time>
      </trkpt>
      <trkpt lat="42.94467" lon="1.92645">
        <ele>563</ele>
        <time>2023-03-24T07:49:54Z</time>
      </trkpt>
      <trkpt lat="42.94479" lon="1.92622">
        <ele>559</ele>
        <time>2023-03-24T07:50:04Z</time>
      </trkpt>
      <trkpt lat="42.94499" lon="1.9261">
        <ele>552</ele>
        <time>2023-03-24T07:50:15Z</time>
      </trkpt>
      <trkpt lat="42.94511" lon="1.92611">
        <ele>549</ele>
        <time>2023-03-24T07:50:21Z</time>
      </trkpt>
      <trkpt lat="42.94509" lon="1.92597">
        <ele>550</ele>
        <time>2023-03-24T07:50:27Z</time>
      </trkpt>
      <trkpt lat="42.94498" lon="1.9258">
        <ele>553</ele>
        <time>2023-03-24T07:50:35Z</time>
      </trkpt>
      <trkpt lat="42.94495" lon="1.92565">
        <ele>554</ele>
        <time>2023-03-24T07:50:41Z</time>
      </trkpt>
      <trkpt lat="42.94489" lon="1.92551">
        <ele>556</ele>
        <time>2023-03-24T07:50:46Z</time>
      </trkpt>
      <trkpt lat="42.94477" lon="1.9251">
        <ele>560</ele>
        <time>2023-03-24T07:51:03Z</time>
      </trkpt>
      <trkpt lat="42.94476" lon="1.92471">
        <ele>562</ele>
        <time>2023-03-24T07:51:17Z</time>
      </trkpt>
      <trkpt lat="42.94472" lon="1.92455">
        <ele>565</ele>
        <time>2023-03-24T07:51:23Z</time>
      </trkpt>
      <trkpt lat="42.94472" lon="1.92429">
        <ele>567</ele>
        <time>2023-03-24T07:51:33Z</time>
      </trkpt>
      <trkpt lat="42.94468" lon="1.92402">
        <ele>571</ele>
        <time>2023-03-24T07:51:43Z</time>
      </trkpt>
      <trkpt lat="42.94471" lon="1.92385">
        <ele>571</ele>
        <time>2023-03-24T07:51:49Z</time>
      </trkpt>
      <trkpt lat="42.94473" lon="1.92355">
        <ele>573</ele>
        <time>2023-03-24T07:52:00Z</time>
      </trkpt>
      <trkpt lat="42.94469" lon="1.92314">
        <ele>578</ele>
        <time>2023-03-24T07:52:15Z</time>
      </trkpt>
      <trkpt lat="42.9447" lon="1.9229">
        <ele>580</ele>
        <time>2023-03-24T07:52:24Z</time>
      </trkpt>
      <trkpt lat="42.9448" lon="1.92271">
        <ele>576</ele>
        <time>2023-03-24T07:52:33Z</time>
      </trkpt>
      <trkpt lat="42.94489" lon="1.92238">
        <ele>574</ele>
        <time>2023-03-24T07:52:46Z</time>
      </trkpt>
      <trkpt lat="42.94508" lon="1.9219">
        <ele>570</ele>
        <time>2023-03-24T07:53:06Z</time>
      </trkpt>
      <trkpt lat="42.94537" lon="1.92135">
        <ele>563</ele>
        <time>2023-03-24T07:53:30Z</time>
      </trkpt>
      <trkpt lat="42.94549" lon="1.92108">
        <ele>561</ele>
        <time>2023-03-24T07:53:42Z</time>
      </trkpt>
      <trkpt lat="42.94582" lon="1.92057">
        <ele>552</ele>
        <time>2023-03-24T07:54:07Z</time>
      </trkpt>
      <trkpt lat="42.9461" lon="1.92029">
        <ele>545</ele>
        <time>2023-03-24T07:54:24Z</time>
      </trkpt>
      <trkpt lat="42.9463" lon="1.92003">
        <ele>540</ele>
        <time>2023-03-24T07:54:38Z</time>
      </trkpt>
      <trkpt lat="42.94639" lon="1.91995">
        <ele>537</ele>
        <time>2023-03-24T07:54:43Z</time>
      </trkpt>
      <trkpt lat="42.9465" lon="1.91995">
        <ele>533</ele>
        <time>2023-03-24T07:54:49Z</time>
      </trkpt>
      <trkpt lat="42.94659" lon="1.92002">
        <ele>530</ele>
        <time>2023-03-24T07:54:54Z</time>
      </trkpt>
      <trkpt lat="42.94669" lon="1.92002">
        <ele>526</ele>
        <time>2023-03-24T07:54:59Z</time>
      </trkpt>
      <trkpt lat="42.9469" lon="1.92011">
        <ele>521</ele>
        <time>2023-03-24T07:55:10Z</time>
      </trkpt>
      <trkpt lat="42.94702" lon="1.92053">
        <ele>516</ele>
        <time>2023-03-24T07:55:27Z</time>
      </trkpt>
      <trkpt lat="42.94711" lon="1.9206">
        <ele>514</ele>
        <time>2023-03-24T07:55:32Z</time>
      </trkpt>
      <trkpt lat="42.94725" lon="1.92066">
        <ele>511</ele>
        <time>2023-03-24T07:55:39Z</time>
      </trkpt>
      <trkpt lat="42.94734" lon="1.92072">
        <ele>509</ele>
        <time>2023-03-24T07:55:44Z</time>
      </trkpt>
      <trkpt lat="42.94744" lon="1.92071">
        <ele>507</ele>
        <time>2023-03-24T07:55:49Z</time>
      </trkpt>
      <trkpt lat="42.94754" lon="1.92065">
        <ele>505</ele>
        <time>2023-03-24T07:55:55Z</time>
      </trkpt>
      <trkpt lat="42.94762" lon="1.92078">
        <ele>503</ele>
        <time>2023-03-24T07:56:01Z</time>
      </trkpt>
      <trkpt lat="42.94774" lon="1.92084">
        <ele>500</ele>
        <time>2023-03-24T07:56:07Z</time>
      </trkpt>
      <trkpt lat="42.94778" lon="1.92096">
        <ele>499</ele>
        <time>2023-03-24T07:56:12Z</time>
      </trkpt>
      <trkpt lat="42.94808" lon="1.9212">
        <ele>493</ele>
        <time>2023-03-24T07:56:30Z</time>
      </trkpt>
      <trkpt lat="42.94825" lon="1.92128">
        <ele>490</ele>
        <time>2023-03-24T07:56:39Z</time>
      </trkpt>
      <trkpt lat="42.94841" lon="1.92133">
        <ele>487</ele>
        <time>2023-03-24T07:56:47Z</time>
      </trkpt>
      <trkpt lat="42.94894" lon="1.92143">
        <ele>480</ele>
        <time>2023-03-24T07:57:14Z</time>
      </trkpt>
      <trkpt lat="42.94924" lon="1.92153">
        <ele>479</ele>
        <time>2023-03-24T07:57:29Z</time>
      </trkpt>
      <trkpt lat="42.94938" lon="1.92155">
        <ele>480</ele>
        <time>2023-03-24T07:57:36Z</time>
      </trkpt>
      <trkpt lat="42.94951" lon="1.92161">
        <ele>481</ele>
        <time>2023-03-24T07:57:43Z</time>
      </trkpt>
      <trkpt lat="42.94991" lon="1.92189">
        <ele>482</ele>
        <time>2023-03-24T07:58:05Z</time>
      </trkpt>
      <trkpt lat="42.95023" lon="1.92205">
        <ele>479</ele>
        <time>2023-03-24T07:58:22Z</time>
      </trkpt>
      <trkpt lat="42.9505" lon="1.92204">
        <ele>478</ele>
        <time>2023-03-24T07:58:36Z</time>
      </trkpt>
      <trkpt lat="42.95072" lon="1.92197">
        <ele>478</ele>
        <time>2023-03-24T07:58:47Z</time>
      </trkpt>
      <trkpt lat="42.9505" lon="1.92204">
        <ele>478</ele>
        <time>2023-03-24T07:58:59Z</time>
      </trkpt>
      <trkpt lat="42.95023" lon="1.92205">
        <ele>479</ele>
        <time>2023-03-24T07:59:12Z</time>
      </trkpt>
      <trkpt lat="42.94996" lon="1.92191">
        <ele>482</ele>
        <time>2023-03-24T07:59:27Z</time>
      </trkpt>
      <trkpt lat="42.95003" lon="1.92164">
        <ele>486</ele>
        <time>2023-03-24T07:59:37Z</time>
      </trkpt>
      <trkpt lat="42.95003" lon="1.92148">
        <ele>486</ele>
        <time>2023-03-24T07:59:43Z</time>
      </trkpt>
      <trkpt lat="42.94998" lon="1.92101">
        <ele>487</ele>
        <time>2023-03-24T08:00:00Z</time>
      </trkpt>
      <trkpt lat="42.95004" lon="1.92064">
        <ele>486</ele>
        <time>2023-03-24T08:00:14Z</time>
      </trkpt>
      <trkpt lat="42.95008" lon="1.92052">
        <ele>486</ele>
        <time>2023-03-24T08:00:19Z</time>
      </trkpt>
      <trkpt lat="42.95015" lon="1.92013">
        <ele>485</ele>
        <time>2023-03-24T08:00:34Z</time>
      </trkpt>
      <trkpt lat="42.95041" lon="1.91982">
        <ele>487</ele>
        <time>2023-03-24T08:00:51Z</time>
      </trkpt>
      <trkpt lat="42.95048" lon="1.91967">
        <ele>488</ele>
        <time>2023-03-24T08:00:58Z</time>
      </trkpt>
      <trkpt lat="42.9506" lon="1.91958">
        <ele>489</ele>
        <time>2023-03-24T08:01:04Z</time>
      </trkpt>
      <trkpt lat="42.95073" lon="1.9194">
        <ele>491</ele>
        <time>2023-03-24T08:01:14Z</time>
      </trkpt>
      <trkpt lat="42.95083" lon="1.91915">
        <ele>492</ele>
        <time>2023-03-24T08:01:24Z</time>
      </trkpt>
      <trkpt lat="42.9509" lon="1.91863">
        <ele>486</ele>
        <time>2023-03-24T08:01:43Z</time>
      </trkpt>
      <trkpt lat="42.95096" lon="1.91837">
        <ele>483</ele>
        <time>2023-03-24T08:01:53Z</time>
      </trkpt>
      <trkpt lat="42.9511" lon="1.91799">
        <ele>481</ele>
        <time>2023-03-24T08:02:09Z</time>
      </trkpt>
      <trkpt lat="42.95119" lon="1.91786">
        <ele>481</ele>
        <time>2023-03-24T08:02:16Z</time>
      </trkpt>
      <trkpt lat="42.95141" lon="1.917">
        <ele>478</ele>
        <time>2023-03-24T08:02:49Z</time>
      </trkpt>
      <trkpt lat="42.95146" lon="1.91689">
        <ele>478</ele>
        <time>2023-03-24T08:02:54Z</time>
      </trkpt>
      <trkpt lat="42.95166" lon="1.91576">
        <ele>477</ele>
        <time>2023-03-24T08:03:36Z</time>
      </trkpt>
      <trkpt lat="42.95181" lon="1.91517">
        <ele>473</ele>
        <time>2023-03-24T08:03:59Z</time>
      </trkpt>
      <trkpt lat="42.9519" lon="1.91494">
        <ele>472</ele>
        <time>2023-03-24T08:04:09Z</time>
      </trkpt>
      <trkpt lat="42.95199" lon="1.91453">
        <ele>471</ele>
        <time>2023-03-24T08:04:24Z</time>
      </trkpt>
      <trkpt lat="42.95226" lon="1.91412">
        <ele>472</ele>
        <time>2023-03-24T08:04:45Z</time>
      </trkpt>
      <trkpt lat="42.9524" lon="1.91387">
        <ele>473</ele>
        <time>2023-03-24T08:04:56Z</time>
      </trkpt>
      <trkpt lat="42.95258" lon="1.91333">
        <ele>472</ele>
        <time>2023-03-24T08:05:18Z</time>
      </trkpt>
      <trkpt lat="42.95259" lon="1.91315">
        <ele>469</ele>
        <time>2023-03-24T08:05:24Z</time>
      </trkpt>
      <trkpt lat="42.95276" lon="1.9128">
        <ele>464</ele>
        <time>2023-03-24T08:05:40Z</time>
      </trkpt>
      <trkpt lat="42.95285" lon="1.91268">
        <ele>462</ele>
        <time>2023-03-24T08:05:46Z</time>
      </trkpt>
      <trkpt lat="42.95309" lon="1.91245">
        <ele>459</ele>
        <time>2023-03-24T08:06:01Z</time>
      </trkpt>
      <trkpt lat="42.95332" lon="1.91219">
        <ele>456</ele>
        <time>2023-03-24T08:06:16Z</time>
      </trkpt>
      <trkpt lat="42.95337" lon="1.91209">
        <ele>455</ele>
        <time>2023-03-24T08:06:20Z</time>
      </trkpt>
      <trkpt lat="42.9535" lon="1.9117">
        <ele>451</ele>
        <time>2023-03-24T08:06:36Z</time>
      </trkpt>
      <trkpt lat="42.95354" lon="1.91164">
        <ele>450</ele>
        <time>2023-03-24T08:06:39Z</time>
      </trkpt>
      <trkpt lat="42.95385" lon="1.91144">
        <ele>445</ele>
        <time>2023-03-24T08:06:56Z</time>
      </trkpt>
      <trkpt lat="42.95391" lon="1.91137">
        <ele>444</ele>
        <time>2023-03-24T08:07:00Z</time>
      </trkpt>
      <trkpt lat="42.95398" lon="1.91122">
        <ele>442</ele>
        <time>2023-03-24T08:07:06Z</time>
      </trkpt>
      <trkpt lat="42.95413" lon="1.91048">
        <ele>437</ele>
        <time>2023-03-24T08:07:35Z</time>
      </trkpt>
      <trkpt lat="42.95443" lon="1.90931">
        <ele>432</ele>
        <time>2023-03-24T08:08:20Z</time>
      </trkpt>
      <trkpt lat="42.95453" lon="1.90934">
        <ele>432</ele>
        <time>2023-03-24T08:08:25Z</time>
      </trkpt>
      <trkpt lat="42.95476" lon="1.90949">
        <ele>432</ele>
        <time>2023-03-24T08:08:38Z</time>
      </trkpt>
      <trkpt lat="42.95497" lon="1.90976">
        <ele>432</ele>
        <time>2023-03-24T08:08:52Z</time>
      </trkpt>
      <trkpt lat="42.95508" lon="1.90994">
        <ele>431</ele>
        <time>2023-03-24T08:09:01Z</time>
      </trkpt>
      <trkpt lat="42.95512" lon="1.90994">
        <ele>431</ele>
        <time>2023-03-24T08:09:03Z</time>
      </trkpt>
      <trkpt lat="42.95515" lon="1.90991">
        <ele>431</ele>
        <time>2023-03-24T08:09:05Z</time>
      </trkpt>
      <trkpt lat="42.95532" lon="1.90958">
        <ele>432</ele>
        <time>2023-03-24T08:09:20Z</time>
      </trkpt>
      <trkpt lat="42.95536" lon="1.90961">
        <ele>432</ele>
        <time>2023-03-24T08:09:22Z</time>
      </trkpt>
      <trkpt lat="42.95597" lon="1.9106">
        <ele>430</ele>
        <time>2023-03-24T08:10:09Z</time>
      </trkpt>
    </trkseg>
  </trk>
</gpx>